sensor_id;sensor_type;location;lat;lon;timestamp;temperature;humidity
8220;DHT22;4151;51.110;7.020;2023-03-23T00:02:06;11.90;99.90
8220;DHT22;4151;51.110;7.020;2023-03-23T00:04:32;11.90;99.90
8220;DHT22;4151;51.110;7.020;2023-03-23T00:06:58;11.90;99.90
8220;DHT22;4151;51.110;7.020;2023-03-23T00:09:26;12.00;99.90
8220;DHT22;4151;51.110;7.020;2023-03-23T00:11:52;12.10;99.90
8220;DHT22;4151;51.110;7.020;2023-03-23T00:14:23;12.10;99.90
8220;DHT22;4151;51.110;7.020;2023-03-23T00:16:49;12.10;99.90
8220;DHT22;4151;51.110;7.020;2023-03-23T00:19:15;12.20;99.90
8220;DHT22;4151;51.110;7.020;2023-03-23T00:21:42;12.20;99.90
8220;DHT22;4151;51.110;7.020;2023-03-23T00:24:16;12.20;99.90
8220;DHT22;4151;51.110;7.020;2023-03-23T00:26:46;12.30;99.90
8220;DHT22;4151;51.110;7.020;2023-03-23T00:29:21;12.30;99.90
8220;DHT22;4151;51.110;7.020;2023-03-23T00:31:47;12.40;99.90
8220;DHT22;4151;51.110;7.020;2023-03-23T00:34:18;12.40;99.90
8220;DHT22;4151;51.110;7.020;2023-03-23T00:36:46;12.50;99.90
8220;DHT22;4151;51.110;7.020;2023-03-23T00:39:12;12.60;99.90
8220;DHT22;4151;51.110;7.020;2023-03-23T00:41:38;12.60;99.90
8220;DHT22;4151;51.110;7.020;2023-03-23T00:44:04;12.50;99.90
8220;DHT22;4151;51.110;7.020;2023-03-23T00:46:30;12.60;99.90
8220;DHT22;4151;51.110;7.020;2023-03-23T00:48:56;12.50;99.90
8220;DHT22;4151;51.110;7.020;2023-03-23T00:51:23;12.60;99.90
8220;DHT22;4151;51.110;7.020;2023-03-23T00:53:49;12.50;99.90
8220;DHT22;4151;51.110;7.020;2023-03-23T00:56:15;12.50;99.90
8220;DHT22;4151;51.110;7.020;2023-03-23T00:58:41;12.50;99.90
8220;DHT22;4151;51.110;7.020;2023-03-23T01:01:07;12.50;99.90
8220;DHT22;4151;51.110;7.020;2023-03-23T01:03:32;12.50;99.90
8220;DHT22;4151;51.110;7.020;2023-03-23T01:06:04;12.50;99.90
8220;DHT22;4151;51.110;7.020;2023-03-23T01:08:30;12.40;99.90
8220;DHT22;4151;51.110;7.020;2023-03-23T01:11:02;12.40;99.90
8220;DHT22;4151;51.110;7.020;2023-03-23T01:13:29;12.40;99.90
8220;DHT22;4151;51.110;7.020;2023-03-23T01:15:54;12.50;99.90
8220;DHT22;4151;51.110;7.020;2023-03-23T01:18:20;12.50;99.90
8220;DHT22;4151;51.110;7.020;2023-03-23T01:20:45;12.50;99.90
8220;DHT22;4151;51.110;7.020;2023-03-23T01:23:11;12.50;99.90
8220;DHT22;4151;51.110;7.020;2023-03-23T01:25:36;12.50;99.90
8220;DHT22;4151;51.110;7.020;2023-03-23T01:28:02;12.50;99.90
8220;DHT22;4151;51.110;7.020;2023-03-23T01:30:28;12.50;99.90
8220;DHT22;4151;51.110;7.020;2023-03-23T01:32:54;12.50;99.90
8220;DHT22;4151;51.110;7.020;2023-03-23T01:35:21;12.40;99.90
8220;DHT22;4151;51.110;7.020;2023-03-23T01:37:47;12.30;99.90
8220;DHT22;4151;51.110;7.020;2023-03-23T01:40:13;12.20;99.90
8220;DHT22;4151;51.110;7.020;2023-03-23T01:42:39;12.10;99.90
8220;DHT22;4151;51.110;7.020;2023-03-23T01:45:24;12.00;99.90
8220;DHT22;4151;51.110;7.020;2023-03-23T01:47:56;11.90;99.90
8220;DHT22;4151;51.110;7.020;2023-03-23T01:50:24;11.70;99.90
8220;DHT22;4151;51.110;7.020;2023-03-23T01:52:52;11.60;99.90
8220;DHT22;4151;51.110;7.020;2023-03-23T01:55:19;11.50;99.90
8220;DHT22;4151;51.110;7.020;2023-03-23T01:57:47;11.30;99.90
8220;DHT22;4151;51.110;7.020;2023-03-23T02:00:13;11.20;99.90
8220;DHT22;4151;51.110;7.020;2023-03-23T02:02:43;11.10;99.90
8220;DHT22;4151;51.110;7.020;2023-03-23T02:05:23;11.10;99.90
8220;DHT22;4151;51.110;7.020;2023-03-23T02:07:50;11.10;99.90
8220;DHT22;4151;51.110;7.020;2023-03-23T02:10:16;11.00;99.90
8220;DHT22;4151;51.110;7.020;2023-03-23T02:12:42;11.00;99.90
8220;DHT22;4151;51.110;7.020;2023-03-23T02:15:08;10.90;99.90
8220;DHT22;4151;51.110;7.020;2023-03-23T02:17:48;10.90;99.90
8220;DHT22;4151;51.110;7.020;2023-03-23T02:20:29;10.90;99.90
8220;DHT22;4151;51.110;7.020;2023-03-23T02:28:36;10.80;99.90
8220;DHT22;4151;51.110;7.020;2023-03-23T02:31:17;10.80;99.90
8220;DHT22;4151;51.110;7.020;2023-03-23T02:36:21;10.80;99.90
8220;DHT22;4151;51.110;7.020;2023-03-23T02:39:12;10.80;99.90
8220;DHT22;4151;51.110;7.020;2023-03-23T02:41:49;10.80;99.90
8220;DHT22;4151;51.110;7.020;2023-03-23T02:44:17;10.80;99.90
8220;DHT22;4151;51.110;7.020;2023-03-23T02:46:44;10.80;99.90
8220;DHT22;4151;51.110;7.020;2023-03-23T02:49:12;10.80;99.90
8220;DHT22;4151;51.110;7.020;2023-03-23T02:51:38;10.90;99.90
8220;DHT22;4151;51.110;7.020;2023-03-23T02:54:05;10.80;99.90
8220;DHT22;4151;51.110;7.020;2023-03-23T02:56:33;10.80;99.90
8220;DHT22;4151;51.110;7.020;2023-03-23T02:58:59;10.80;99.90
8220;DHT22;4151;51.110;7.020;2023-03-23T03:03:52;10.80;99.90
8220;DHT22;4151;51.110;7.020;2023-03-23T03:06:27;10.80;99.90
8220;DHT22;4151;51.110;7.020;2023-03-23T03:09:11;10.80;99.90
8220;DHT22;4151;51.110;7.020;2023-03-23T03:11:45;10.80;99.90
8220;DHT22;4151;51.110;7.020;2023-03-23T03:17:15;10.80;99.90
8220;DHT22;4151;51.110;7.020;2023-03-23T03:19:48;10.80;99.90
8220;DHT22;4151;51.110;7.020;2023-03-23T03:22:15;10.80;99.90
8220;DHT22;4151;51.110;7.020;2023-03-23T03:24:42;10.80;99.90
8220;DHT22;4151;51.110;7.020;2023-03-23T03:27:14;10.90;99.90
8220;DHT22;4151;51.110;7.020;2023-03-23T03:29:44;10.90;99.90
8220;DHT22;4151;51.110;7.020;2023-03-23T03:32:17;10.90;99.90
8220;DHT22;4151;51.110;7.020;2023-03-23T03:34:45;10.90;99.90
8220;DHT22;4151;51.110;7.020;2023-03-23T03:37:11;10.90;99.90
8220;DHT22;4151;51.110;7.020;2023-03-23T03:39:38;10.90;99.90
8220;DHT22;4151;51.110;7.020;2023-03-23T03:42:06;10.90;99.90
8220;DHT22;4151;51.110;7.020;2023-03-23T03:44:33;11.00;99.90
8220;DHT22;4151;51.110;7.020;2023-03-23T03:46:58;11.00;99.90
8220;DHT22;4151;51.110;7.020;2023-03-23T03:49:24;11.10;99.90
8220;DHT22;4151;51.110;7.020;2023-03-23T03:51:50;11.10;99.90
8220;DHT22;4151;51.110;7.020;2023-03-23T03:54:16;11.20;99.90
8220;DHT22;4151;51.110;7.020;2023-03-23T03:56:42;11.10;99.90
8220;DHT22;4151;51.110;7.020;2023-03-23T03:59:09;11.20;99.90
8220;DHT22;4151;51.110;7.020;2023-03-23T04:01:36;11.20;99.90
8220;DHT22;4151;51.110;7.020;2023-03-23T04:04:02;11.30;99.90
8220;DHT22;4151;51.110;7.020;2023-03-23T04:06:28;11.30;99.90
8220;DHT22;4151;51.110;7.020;2023-03-23T04:08:55;11.30;99.90
8220;DHT22;4151;51.110;7.020;2023-03-23T04:11:21;11.30;99.90
8220;DHT22;4151;51.110;7.020;2023-03-23T04:13:47;11.40;99.90
8220;DHT22;4151;51.110;7.020;2023-03-23T04:16:12;11.30;99.90
8220;DHT22;4151;51.110;7.020;2023-03-23T04:18:39;11.40;99.90
8220;DHT22;4151;51.110;7.020;2023-03-23T04:21:05;11.40;99.90
8220;DHT22;4151;51.110;7.020;2023-03-23T04:23:34;11.40;99.90
8220;DHT22;4151;51.110;7.020;2023-03-23T04:26:00;11.40;99.90
8220;DHT22;4151;51.110;7.020;2023-03-23T04:28:26;11.40;99.90
8220;DHT22;4151;51.110;7.020;2023-03-23T04:30:54;11.40;99.90
8220;DHT22;4151;51.110;7.020;2023-03-23T04:33:24;11.30;99.90
8220;DHT22;4151;51.110;7.020;2023-03-23T04:35:51;11.40;99.90
8220;DHT22;4151;51.110;7.020;2023-03-23T04:38:19;11.30;99.90
8220;DHT22;4151;51.110;7.020;2023-03-23T04:40:49;11.30;99.90
8220;DHT22;4151;51.110;7.020;2023-03-23T04:43:19;11.30;99.90
8220;DHT22;4151;51.110;7.020;2023-03-23T04:45:47;11.30;99.90
8220;DHT22;4151;51.110;7.020;2023-03-23T04:48:17;11.20;99.90
8220;DHT22;4151;51.110;7.020;2023-03-23T04:50:44;11.20;99.90
8220;DHT22;4151;51.110;7.020;2023-03-23T04:53:09;11.20;99.90
8220;DHT22;4151;51.110;7.020;2023-03-23T04:55:36;11.20;99.90
8220;DHT22;4151;51.110;7.020;2023-03-23T04:58:03;11.20;99.90
8220;DHT22;4151;51.110;7.020;2023-03-23T05:00:29;11.20;99.90
8220;DHT22;4151;51.110;7.020;2023-03-23T05:02:54;11.20;99.90
8220;DHT22;4151;51.110;7.020;2023-03-23T05:05:22;11.30;99.90
8220;DHT22;4151;51.110;7.020;2023-03-23T05:07:48;11.30;99.90
8220;DHT22;4151;51.110;7.020;2023-03-23T05:10:15;11.30;99.90
8220;DHT22;4151;51.110;7.020;2023-03-23T05:12:41;11.40;99.90
8220;DHT22;4151;51.110;7.020;2023-03-23T05:15:07;11.40;99.90
8220;DHT22;4151;51.110;7.020;2023-03-23T05:17:34;11.30;99.90
8220;DHT22;4151;51.110;7.020;2023-03-23T05:20:00;11.40;99.90
8220;DHT22;4151;51.110;7.020;2023-03-23T05:22:27;11.40;99.90
8220;DHT22;4151;51.110;7.020;2023-03-23T05:24:53;11.40;99.90
8220;DHT22;4151;51.110;7.020;2023-03-23T05:27:19;11.40;99.90
8220;DHT22;4151;51.110;7.020;2023-03-23T05:29:47;11.40;99.90
8220;DHT22;4151;51.110;7.020;2023-03-23T05:32:15;11.40;99.90
8220;DHT22;4151;51.110;7.020;2023-03-23T05:34:42;11.40;99.90
8220;DHT22;4151;51.110;7.020;2023-03-23T05:37:09;11.50;99.90
8220;DHT22;4151;51.110;7.020;2023-03-23T05:39:35;11.50;99.90
8220;DHT22;4151;51.110;7.020;2023-03-23T05:42:01;11.50;99.90
8220;DHT22;4151;51.110;7.020;2023-03-23T05:44:26;11.50;99.90
8220;DHT22;4151;51.110;7.020;2023-03-23T05:46:52;11.50;99.90
8220;DHT22;4151;51.110;7.020;2023-03-23T05:49:18;11.50;99.90
8220;DHT22;4151;51.110;7.020;2023-03-23T05:51:45;11.50;99.90
8220;DHT22;4151;51.110;7.020;2023-03-23T05:54:15;11.50;99.90
8220;DHT22;4151;51.110;7.020;2023-03-23T05:56:41;11.50;99.90
8220;DHT22;4151;51.110;7.020;2023-03-23T05:59:07;11.50;99.90
8220;DHT22;4151;51.110;7.020;2023-03-23T06:01:32;11.50;99.90
8220;DHT22;4151;51.110;7.020;2023-03-23T06:03:58;11.50;99.90
8220;DHT22;4151;51.110;7.020;2023-03-23T06:06:26;11.60;99.90
8220;DHT22;4151;51.110;7.020;2023-03-23T06:08:52;11.60;99.90
8220;DHT22;4151;51.110;7.020;2023-03-23T06:11:17;11.60;99.90
8220;DHT22;4151;51.110;7.020;2023-03-23T06:13:44;11.70;99.90
8220;DHT22;4151;51.110;7.020;2023-03-23T06:16:09;11.70;99.90
8220;DHT22;4151;51.110;7.020;2023-03-23T06:18:35;11.70;99.90
8220;DHT22;4151;51.110;7.020;2023-03-23T06:21:03;11.70;99.90
8220;DHT22;4151;51.110;7.020;2023-03-23T06:23:29;11.70;99.90
8220;DHT22;4151;51.110;7.020;2023-03-23T06:25:57;11.80;99.90
8220;DHT22;4151;51.110;7.020;2023-03-23T06:28:24;11.80;99.90
8220;DHT22;4151;51.110;7.020;2023-03-23T06:30:50;11.80;99.90
8220;DHT22;4151;51.110;7.020;2023-03-23T06:33:16;11.90;99.90
8220;DHT22;4151;51.110;7.020;2023-03-23T06:35:42;11.90;99.90
8220;DHT22;4151;51.110;7.020;2023-03-23T06:38:08;11.90;99.90
8220;DHT22;4151;51.110;7.020;2023-03-23T06:40:34;11.90;99.90
8220;DHT22;4151;51.110;7.020;2023-03-23T06:43:01;11.90;99.90
8220;DHT22;4151;51.110;7.020;2023-03-23T06:45:26;11.90;99.90
8220;DHT22;4151;51.110;7.020;2023-03-23T06:47:52;11.90;99.90
8220;DHT22;4151;51.110;7.020;2023-03-23T06:50:18;12.00;99.90
8220;DHT22;4151;51.110;7.020;2023-03-23T06:52:47;12.00;99.90
8220;DHT22;4151;51.110;7.020;2023-03-23T06:55:14;12.00;99.90
8220;DHT22;4151;51.110;7.020;2023-03-23T06:57:40;12.00;99.90
8220;DHT22;4151;51.110;7.020;2023-03-23T07:00:06;12.10;99.90
8220;DHT22;4151;51.110;7.020;2023-03-23T07:02:33;12.20;99.90
8220;DHT22;4151;51.110;7.020;2023-03-23T07:04:59;12.20;99.90
8220;DHT22;4151;51.110;7.020;2023-03-23T07:07:25;12.30;99.90
8220;DHT22;4151;51.110;7.020;2023-03-23T07:09:51;12.30;99.90
8220;DHT22;4151;51.110;7.020;2023-03-23T07:12:17;12.30;99.90
8220;DHT22;4151;51.110;7.020;2023-03-23T07:14:42;12.30;99.90
8220;DHT22;4151;51.110;7.020;2023-03-23T07:17:08;12.40;99.90
8220;DHT22;4151;51.110;7.020;2023-03-23T07:19:34;12.40;99.90
8220;DHT22;4151;51.110;7.020;2023-03-23T07:22:01;12.50;99.90
8220;DHT22;4151;51.110;7.020;2023-03-23T07:24:26;12.50;99.90
8220;DHT22;4151;51.110;7.020;2023-03-23T07:26:52;12.50;99.90
8220;DHT22;4151;51.110;7.020;2023-03-23T07:29:18;12.60;99.90
8220;DHT22;4151;51.110;7.020;2023-03-23T07:31:44;12.60;99.90
8220;DHT22;4151;51.110;7.020;2023-03-23T07:34:09;12.60;99.90
8220;DHT22;4151;51.110;7.020;2023-03-23T07:36:35;12.70;99.90
8220;DHT22;4151;51.110;7.020;2023-03-23T07:39:04;12.70;99.90
8220;DHT22;4151;51.110;7.020;2023-03-23T07:41:31;12.70;99.90
8220;DHT22;4151;51.110;7.020;2023-03-23T07:43:57;12.80;99.90
8220;DHT22;4151;51.110;7.020;2023-03-23T07:46:23;12.80;99.90
8220;DHT22;4151;51.110;7.020;2023-03-23T07:48:49;12.80;99.90
8220;DHT22;4151;51.110;7.020;2023-03-23T07:51:15;12.80;99.90
8220;DHT22;4151;51.110;7.020;2023-03-23T07:53:42;12.90;99.90
8220;DHT22;4151;51.110;7.020;2023-03-23T07:56:13;12.90;99.90
8220;DHT22;4151;51.110;7.020;2023-03-23T07:58:41;12.90;99.90
8220;DHT22;4151;51.110;7.020;2023-03-23T08:01:07;13.00;99.90
8220;DHT22;4151;51.110;7.020;2023-03-23T08:03:33;13.10;99.90
8220;DHT22;4151;51.110;7.020;2023-03-23T08:05:59;13.10;99.90
8220;DHT22;4151;51.110;7.020;2023-03-23T08:08:25;13.10;99.90
8220;DHT22;4151;51.110;7.020;2023-03-23T08:10:51;13.10;99.90
8220;DHT22;4151;51.110;7.020;2023-03-23T08:13:17;13.10;99.90
8220;DHT22;4151;51.110;7.020;2023-03-23T08:15:43;13.20;99.90
8220;DHT22;4151;51.110;7.020;2023-03-23T08:18:10;13.20;99.90
8220;DHT22;4151;51.110;7.020;2023-03-23T08:20:36;13.20;99.90
8220;DHT22;4151;51.110;7.020;2023-03-23T08:23:02;13.20;99.90
8220;DHT22;4151;51.110;7.020;2023-03-23T08:25:29;13.20;99.90
8220;DHT22;4151;51.110;7.020;2023-03-23T08:27:57;13.30;99.90
8220;DHT22;4151;51.110;7.020;2023-03-23T08:30:23;13.30;99.90
8220;DHT22;4151;51.110;7.020;2023-03-23T08:32:51;13.30;99.90
8220;DHT22;4151;51.110;7.020;2023-03-23T08:35:18;13.40;99.90
8220;DHT22;4151;51.110;7.020;2023-03-23T08:37:45;13.50;99.90
8220;DHT22;4151;51.110;7.020;2023-03-23T08:40:12;13.40;99.90
8220;DHT22;4151;51.110;7.020;2023-03-23T08:42:41;13.40;99.90
8220;DHT22;4151;51.110;7.020;2023-03-23T08:45:10;13.50;99.90
8220;DHT22;4151;51.110;7.020;2023-03-23T08:47:37;13.60;99.90
8220;DHT22;4151;51.110;7.020;2023-03-23T08:50:05;13.60;99.90
8220;DHT22;4151;51.110;7.020;2023-03-23T08:52:31;13.70;99.90
8220;DHT22;4151;51.110;7.020;2023-03-23T08:54:56;13.70;99.90
8220;DHT22;4151;51.110;7.020;2023-03-23T08:57:22;13.70;99.90
8220;DHT22;4151;51.110;7.020;2023-03-23T08:59:48;13.60;99.90
8220;DHT22;4151;51.110;7.020;2023-03-23T09:02:14;13.50;99.90
8220;DHT22;4151;51.110;7.020;2023-03-23T09:04:40;13.50;99.90
8220;DHT22;4151;51.110;7.020;2023-03-23T09:07:09;13.50;99.90
8220;DHT22;4151;51.110;7.020;2023-03-23T09:09:36;13.50;99.90
8220;DHT22;4151;51.110;7.020;2023-03-23T09:12:03;13.50;99.90
8220;DHT22;4151;51.110;7.020;2023-03-23T09:14:28;13.70;99.90
8220;DHT22;4151;51.110;7.020;2023-03-23T09:16:54;13.70;99.90
8220;DHT22;4151;51.110;7.020;2023-03-23T09:19:19;13.70;99.90
8220;DHT22;4151;51.110;7.020;2023-03-23T09:21:46;13.70;99.90
8220;DHT22;4151;51.110;7.020;2023-03-23T09:24:11;13.60;99.90
8220;DHT22;4151;51.110;7.020;2023-03-23T09:26:37;13.70;99.90
8220;DHT22;4151;51.110;7.020;2023-03-23T09:29:03;13.70;99.90
8220;DHT22;4151;51.110;7.020;2023-03-23T09:31:29;13.70;99.90
8220;DHT22;4151;51.110;7.020;2023-03-23T09:33:57;13.70;99.90
8220;DHT22;4151;51.110;7.020;2023-03-23T09:36:24;13.70;99.90
8220;DHT22;4151;51.110;7.020;2023-03-23T09:38:51;13.70;99.90
8220;DHT22;4151;51.110;7.020;2023-03-23T09:41:49;13.70;99.90
8220;DHT22;4151;51.110;7.020;2023-03-23T09:50:12;13.70;99.90
8220;DHT22;4151;51.110;7.020;2023-03-23T09:52:47;13.70;99.90
8220;DHT22;4151;51.110;7.020;2023-03-23T09:55:16;13.70;99.90
8220;DHT22;4151;51.110;7.020;2023-03-23T09:57:51;13.80;99.90
8220;DHT22;4151;51.110;7.020;2023-03-23T10:05:49;13.80;99.90
8220;DHT22;4151;51.110;7.020;2023-03-23T10:08:18;13.80;99.90
8220;DHT22;4151;51.110;7.020;2023-03-23T10:11:13;13.80;99.90
8220;DHT22;4151;51.110;7.020;2023-03-23T10:16:29;13.90;99.90
8220;DHT22;4151;51.110;7.020;2023-03-23T10:21:23;14.10;99.90
8220;DHT22;4151;51.110;7.020;2023-03-23T10:23:54;14.00;99.90
8220;DHT22;4151;51.110;7.020;2023-03-23T10:26:54;13.90;99.90
8220;DHT22;4151;51.110;7.020;2023-03-23T10:29:36;13.90;99.90
8220;DHT22;4151;51.110;7.020;2023-03-23T10:32:12;13.90;99.90
8220;DHT22;4151;51.110;7.020;2023-03-23T10:34:58;13.80;99.90
8220;DHT22;4151;51.110;7.020;2023-03-23T10:37:31;13.80;99.90
8220;DHT22;4151;51.110;7.020;2023-03-23T10:40:00;13.70;99.90
8220;DHT22;4151;51.110;7.020;2023-03-23T10:42:31;13.70;99.90
8220;DHT22;4151;51.110;7.020;2023-03-23T10:44:59;13.70;99.90
8220;DHT22;4151;51.110;7.020;2023-03-23T10:47:25;13.60;99.90
8220;DHT22;4151;51.110;7.020;2023-03-23T10:55:14;13.40;99.90
8220;DHT22;4151;51.110;7.020;2023-03-23T10:57:45;13.30;99.90
8220;DHT22;4151;51.110;7.020;2023-03-23T11:02:57;13.20;99.90
8220;DHT22;4151;51.110;7.020;2023-03-23T11:05:44;13.20;99.90
8220;DHT22;4151;51.110;7.020;2023-03-23T11:08:15;13.00;99.90
8220;DHT22;4151;51.110;7.020;2023-03-23T11:10:49;12.70;99.90
8220;DHT22;4151;51.110;7.020;2023-03-23T11:13:17;12.40;99.90
8220;DHT22;4151;51.110;7.020;2023-03-23T11:15:44;12.20;99.90
8220;DHT22;4151;51.110;7.020;2023-03-23T11:18:22;12.10;99.90
8220;DHT22;4151;51.110;7.020;2023-03-23T11:20:54;11.90;99.90
8220;DHT22;4151;51.110;7.020;2023-03-23T11:23:28;11.80;99.90
8220;DHT22;4151;51.110;7.020;2023-03-23T11:28:51;11.80;99.90
8220;DHT22;4151;51.110;7.020;2023-03-23T11:31:23;11.80;99.90
8220;DHT22;4151;51.110;7.020;2023-03-23T11:33:57;11.70;99.90
8220;DHT22;4151;51.110;7.020;2023-03-23T11:36:53;11.60;99.90
8220;DHT22;4151;51.110;7.020;2023-03-23T11:39:27;11.60;99.90
8220;DHT22;4151;51.110;7.020;2023-03-23T11:41:58;11.60;99.90
8220;DHT22;4151;51.110;7.020;2023-03-23T11:44:32;11.60;99.90
8220;DHT22;4151;51.110;7.020;2023-03-23T11:52:44;11.40;99.90
8220;DHT22;4151;51.110;7.020;2023-03-23T11:57:38;10.90;99.90
8220;DHT22;4151;51.110;7.020;2023-03-23T12:00:19;10.90;99.90
8220;DHT22;4151;51.110;7.020;2023-03-23T12:03:05;10.80;99.90
8220;DHT22;4151;51.110;7.020;2023-03-23T12:05:45;10.80;99.90
8220;DHT22;4151;51.110;7.020;2023-03-23T12:14:20;11.20;99.90
8220;DHT22;4151;51.110;7.020;2023-03-23T12:22:22;12.60;99.90
8220;DHT22;4151;51.110;7.020;2023-03-23T12:25:34;13.10;99.90
8220;DHT22;4151;51.110;7.020;2023-03-23T13:19:17;14.40;99.90
8220;DHT22;4151;51.110;7.020;2023-03-23T13:24:34;13.60;99.90
8220;DHT22;4151;51.110;7.020;2023-03-23T13:27:01;13.40;99.90
8220;DHT22;4151;51.110;7.020;2023-03-23T13:29:27;13.20;99.90
8220;DHT22;4151;51.110;7.020;2023-03-23T13:32:06;13.10;99.90
8220;DHT22;4151;51.110;7.020;2023-03-23T13:34:32;13.00;99.90
8220;DHT22;4151;51.110;7.020;2023-03-23T13:37:00;13.00;99.90
8220;DHT22;4151;51.110;7.020;2023-03-23T13:39:34;12.90;99.90
8220;DHT22;4151;51.110;7.020;2023-03-23T13:52:23;12.70;99.90
8220;DHT22;4151;51.110;7.020;2023-03-23T13:54:50;12.70;99.90
8220;DHT22;4151;51.110;7.020;2023-03-23T13:57:48;12.50;99.90
8220;DHT22;4151;51.110;7.020;2023-03-23T14:03:45;12.30;99.90
8220;DHT22;4151;51.110;7.020;2023-03-23T14:06:06;12.40;99.90
8220;DHT22;4151;51.110;7.020;2023-03-23T14:11:15;12.00;99.90
8220;DHT22;4151;51.110;7.020;2023-03-23T14:14:01;11.90;99.90
8220;DHT22;4151;51.110;7.020;2023-03-23T14:16:44;11.70;99.90
8220;DHT22;4151;51.110;7.020;2023-03-23T14:19:26;11.70;99.90
8220;DHT22;4151;51.110;7.020;2023-03-23T14:21:56;11.70;99.90
8220;DHT22;4151;51.110;7.020;2023-03-23T14:24:25;11.80;99.90
8220;DHT22;4151;51.110;7.020;2023-03-23T14:26:52;11.90;99.90
8220;DHT22;4151;51.110;7.020;2023-03-23T14:29:20;12.10;99.90
8220;DHT22;4151;51.110;7.020;2023-03-23T14:31:53;12.20;99.90
8220;DHT22;4151;51.110;7.020;2023-03-23T14:34:22;12.20;99.90
8220;DHT22;4151;51.110;7.020;2023-03-23T14:36:49;12.30;99.90
8220;DHT22;4151;51.110;7.020;2023-03-23T14:39:29;12.40;99.90
8220;DHT22;4151;51.110;7.020;2023-03-23T14:42:04;12.50;99.90
8220;DHT22;4151;51.110;7.020;2023-03-23T14:44:32;12.50;99.90
8220;DHT22;4151;51.110;7.020;2023-03-23T14:47:02;12.50;99.90
8220;DHT22;4151;51.110;7.020;2023-03-23T14:49:37;12.40;99.90
8220;DHT22;4151;51.110;7.020;2023-03-23T14:52:15;12.40;99.90
8220;DHT22;4151;51.110;7.020;2023-03-23T14:54:42;12.40;99.90
8220;DHT22;4151;51.110;7.020;2023-03-23T14:59:43;12.50;99.90
8220;DHT22;4151;51.110;7.020;2023-03-23T15:04:49;12.40;99.90
8220;DHT22;4151;51.110;7.020;2023-03-23T15:07:16;12.40;99.90
8220;DHT22;4151;51.110;7.020;2023-03-23T15:09:45;12.30;99.90
8220;DHT22;4151;51.110;7.020;2023-03-23T15:12:37;12.20;99.90
8220;DHT22;4151;51.110;7.020;2023-03-23T15:15:06;12.10;99.90
8220;DHT22;4151;51.110;7.020;2023-03-23T15:17:37;12.00;99.90
8220;DHT22;4151;51.110;7.020;2023-03-23T15:20:18;12.00;99.90
8220;DHT22;4151;51.110;7.020;2023-03-23T15:22:48;12.00;99.90
8220;DHT22;4151;51.110;7.020;2023-03-23T15:25:32;12.00;99.90
8220;DHT22;4151;51.110;7.020;2023-03-23T15:28:18;12.10;99.90
8220;DHT22;4151;51.110;7.020;2023-03-23T15:30:55;12.30;99.90
8220;DHT22;4151;51.110;7.020;2023-03-23T15:33:23;13.20;99.90
8220;DHT22;4151;51.110;7.020;2023-03-23T15:35:54;14.30;99.90
8220;DHT22;4151;51.110;7.020;2023-03-23T15:38:33;15.50;99.90
8220;DHT22;4151;51.110;7.020;2023-03-23T15:41:02;17.30;99.90
8220;DHT22;4151;51.110;7.020;2023-03-23T15:43:34;18.90;99.90
8220;DHT22;4151;51.110;7.020;2023-03-23T15:46:21;20.50;99.90
8220;DHT22;4151;51.110;7.020;2023-03-23T15:48:53;20.70;99.90
8220;DHT22;4151;51.110;7.020;2023-03-23T15:51:21;21.00;99.90
8220;DHT22;4151;51.110;7.020;2023-03-23T15:53:47;21.10;99.90
8220;DHT22;4151;51.110;7.020;2023-03-23T15:56:13;21.20;99.90
8220;DHT22;4151;51.110;7.020;2023-03-23T15:58:40;21.80;99.90
8220;DHT22;4151;51.110;7.020;2023-03-23T16:01:20;21.30;99.90
8220;DHT22;4151;51.110;7.020;2023-03-23T16:06:16;19.20;99.90
8220;DHT22;4151;51.110;7.020;2023-03-23T16:08:42;18.70;99.90
8220;DHT22;4151;51.110;7.020;2023-03-23T16:11:12;18.50;99.90
8220;DHT22;4151;51.110;7.020;2023-03-23T16:13:38;18.10;99.90
8220;DHT22;4151;51.110;7.020;2023-03-23T16:16:06;18.10;99.90
8220;DHT22;4151;51.110;7.020;2023-03-23T16:18:34;17.70;99.90
8220;DHT22;4151;51.110;7.020;2023-03-23T16:21:00;16.80;99.90
8220;DHT22;4151;51.110;7.020;2023-03-23T16:23:26;16.40;99.90
8220;DHT22;4151;51.110;7.020;2023-03-23T16:25:51;16.10;99.90
8220;DHT22;4151;51.110;7.020;2023-03-23T16:28:17;15.90;99.90
8220;DHT22;4151;51.110;7.020;2023-03-23T16:30:45;15.60;99.90
8220;DHT22;4151;51.110;7.020;2023-03-23T16:33:11;15.30;99.90
8220;DHT22;4151;51.110;7.020;2023-03-23T16:35:36;15.00;99.90
8220;DHT22;4151;51.110;7.020;2023-03-23T16:38:02;14.80;99.90
8220;DHT22;4151;51.110;7.020;2023-03-23T16:40:28;14.70;99.90
8220;DHT22;4151;51.110;7.020;2023-03-23T16:42:54;14.90;99.90
8220;DHT22;4151;51.110;7.020;2023-03-23T16:45:20;15.30;99.90
8220;DHT22;4151;51.110;7.020;2023-03-23T16:47:46;15.40;99.90
8220;DHT22;4151;51.110;7.020;2023-03-23T16:50:16;15.50;99.90
8220;DHT22;4151;51.110;7.020;2023-03-23T16:52:43;15.40;99.90
8220;DHT22;4151;51.110;7.020;2023-03-23T16:55:10;15.10;99.90
8220;DHT22;4151;51.110;7.020;2023-03-23T16:57:36;14.90;99.90
8220;DHT22;4151;51.110;7.020;2023-03-23T17:00:08;14.70;99.90
8220;DHT22;4151;51.110;7.020;2023-03-23T17:02:35;14.60;99.90
8220;DHT22;4151;51.110;7.020;2023-03-23T17:05:01;14.40;99.90
8220;DHT22;4151;51.110;7.020;2023-03-23T17:07:27;14.30;99.90
8220;DHT22;4151;51.110;7.020;2023-03-23T17:09:53;14.30;99.90
8220;DHT22;4151;51.110;7.020;2023-03-23T17:12:18;14.30;99.90
8220;DHT22;4151;51.110;7.020;2023-03-23T17:14:44;14.20;99.90
8220;DHT22;4151;51.110;7.020;2023-03-23T17:17:10;14.20;99.90
8220;DHT22;4151;51.110;7.020;2023-03-23T17:19:36;14.20;99.90
8220;DHT22;4151;51.110;7.020;2023-03-23T17:22:01;14.20;99.90
8220;DHT22;4151;51.110;7.020;2023-03-23T17:24:27;14.20;99.90
8220;DHT22;4151;51.110;7.020;2023-03-23T17:26:54;14.20;99.90
8220;DHT22;4151;51.110;7.020;2023-03-23T17:29:20;14.20;99.90
8220;DHT22;4151;51.110;7.020;2023-03-23T17:31:47;14.10;99.90
8220;DHT22;4151;51.110;7.020;2023-03-23T17:34:13;14.10;99.90
8220;DHT22;4151;51.110;7.020;2023-03-23T17:36:39;14.10;99.90
8220;DHT22;4151;51.110;7.020;2023-03-23T17:39:04;14.00;99.90
8220;DHT22;4151;51.110;7.020;2023-03-23T17:41:30;14.00;99.90
8220;DHT22;4151;51.110;7.020;2023-03-23T17:43:56;13.90;99.90
8220;DHT22;4151;51.110;7.020;2023-03-23T17:46:21;13.90;99.90
8220;DHT22;4151;51.110;7.020;2023-03-23T17:48:47;13.80;99.90
8220;DHT22;4151;51.110;7.020;2023-03-23T17:59:18;13.70;99.90
8220;DHT22;4151;51.110;7.020;2023-03-23T18:01:43;13.70;99.90
8220;DHT22;4151;51.110;7.020;2023-03-23T18:04:12;13.60;99.90
8220;DHT22;4151;51.110;7.020;2023-03-23T18:06:37;13.50;99.90
8220;DHT22;4151;51.110;7.020;2023-03-23T18:09:03;13.50;99.90
8220;DHT22;4151;51.110;7.020;2023-03-23T18:11:30;13.30;99.90
8220;DHT22;4151;51.110;7.020;2023-03-23T18:13:55;13.30;99.90
8220;DHT22;4151;51.110;7.020;2023-03-23T18:16:21;13.20;99.90
8220;DHT22;4151;51.110;7.020;2023-03-23T18:18:47;13.10;99.90
8220;DHT22;4151;51.110;7.020;2023-03-23T18:21:13;13.00;99.90
8220;DHT22;4151;51.110;7.020;2023-03-23T18:23:38;13.00;99.90
8220;DHT22;4151;51.110;7.020;2023-03-23T18:26:07;13.00;99.90
8220;DHT22;4151;51.110;7.020;2023-03-23T18:28:33;13.00;99.90
8220;DHT22;4151;51.110;7.020;2023-03-23T18:31:08;13.00;99.90
8220;DHT22;4151;51.110;7.020;2023-03-23T18:33:35;13.00;99.90
8220;DHT22;4151;51.110;7.020;2023-03-23T18:36:03;13.00;99.90
8220;DHT22;4151;51.110;7.020;2023-03-23T18:38:29;13.00;99.90
8220;DHT22;4151;51.110;7.020;2023-03-23T18:40:55;13.00;99.90